Terminal Aerodrome Forecast
Issued by NWS El Paso, TX

Home | Current Version | Previous Version | Text Only | Print | Product List | Glossary On
Versions: 1 2 3 4 5 6 7 8 9 10 11 12 13
000
FTUS44 KEPZ 252320
TAFELP
TAF
KELP 252320Z 2600/2624 07025G35KT P6SM SCT050 BKN080 OVC120
     FM260500 04025G35KT P6SM VCSH BKN025 BKN040 OVC080
     FM261700 09017G27KT P6SM SCT025 BKN040 BKN080=

USA.gov is the U.S. government's official web portal to all federal, state and local government web resources and services.